Evansville, Vermont
Current Conditions -  °F | °C
As of 2:34 PM on Tuesday 21 Oct 2014 (Local Time) from KMVL Reporting Station
Light Rain Light Rain  
Wind Chill: 46°   Ceiling: 2500
Heat Index: 48°   Visibility: 5mi
Dew Point: 45°   Wind: 5mph
Humidity: 89%   Direction: 360°N
Pressure: 30.01"   Gusts: NA
Location:  44.7955°N, 72.0983°W
Report Text: KMVL 211834Z AUTO 36004KT 5SM -RA BR SCT016 BKN025 OVC048 09/07 A3001 RMK AO2 P0003 T00890072
Loading
Personal Weather Stations






























Interactive Weather Map
Tropical Storm Tracking
New forecast layout! Learn more

10-Day Weather Forecast

Advertisements
Track Severe Weather on mobile